• Join FlightAware (Why Join?)
  • Login
  • US Flag 
03:10AM EDT


 

Airport Tracker/Info


-or-


 

Live Flight TrackerFlight Track Log ✈ SKW5631 ✈ 25-Apr-2013 ✈ KAUS - KSFO

Flight Track Log - Related Links

Times and Time Zones

All times are in EDT time to prevent confusion due to time zone crossing. See the SKW5631 flight status page for this flight to view local times or setup timezone preferences in your user account.

Time Position Orientation Groundspeed Altitude Reporting Facility
EDT Latitude Longitude Course Direction KTS MPH feet Rate Location/Type
03:52PM 30.2836 -97.7589 291° West 234 269 4,300  Level Houston Center
03:53PM 30.4461 -97.7517 293° West  Level FlightAware Approximate
03:53PM 30.3192 -97.8294 300° West 246 283 6,200  Level Houston Center
03:54PM 30.4899 -97.8721 293° West  Level FlightAware Approximate
03:54PM 30.3703 -97.9269 301° West 288 331 9,300  Level Houston Center
03:55PM 30.5313 -97.9937 291° West  Level FlightAware Approximate
03:55PM 30.4103 -98.0075 300° West 288 331 11,600  Level Houston Center
03:56PM 30.5720 -98.1156 291° West  Level FlightAware Approximate
03:57PM 30.6126 -98.2377 291° West  Level FlightAware Approximate
03:57PM 30.5058 -98.2019 300° West 357 411 13,900  Level Houston Center
03:58PM 30.5581 -98.3042 301° West 364 419 16,100 1,920 Climbing Houston Center
03:59PM 30.6089 -98.4069 300° West 363 418 17,900 1,500 Climbing Houston Center
04:00PM 30.6617 -98.5108 301° West 369 425 19,300 1,680 Climbing Houston Center
04:01PM 30.7219 -98.6339 300° West 371 427 21,500 1,860 Climbing Houston Center
04:02PM 30.7736 -98.7375 300° West 367 422 23,200 1,500 Climbing Houston Center
04:03PM 30.8489 -98.8206 317° Northwest 379 436 24,600 1,200 Climbing Houston Center
04:04PM 30.9478 -98.8811 332° Northwest 394 453 25,700 900 Climbing Houston Center
04:06PM 31.1219 -98.9906 332° Northwest 400 460 27,200 840 Climbing Fort Worth Center
04:06PM 31.1506 -99.0083 332° Northwest 413 475 27,500 1,020 Climbing Houston Center
04:07PM 31.2531 -99.0736 331° Northwest 415 478 28,700 1,140 Climbing Houston Center
04:08PM 31.3564 -99.1389 332° Northwest 416 479 29,900 1,020 Climbing Houston Center
04:09PM 31.4036 -99.1658 334° Northwest 410 472 30,400 1,020 Climbing Fort Worth Center
04:10PM 31.5131 -99.2408 330° Northwest 410 472 31,500 960 Climbing Fort Worth Center
04:11PM 31.6125 -99.3014 333° Northwest 410 472 32,400 840 Climbing Fort Worth Center
04:12PM 31.7139 -99.3647 332° Northwest 410 472 33,200 780 Climbing Fort Worth Center
04:13PM 31.8108 -99.4278 331° Northwest 410 472 34,000 840 Climbing Fort Worth Center
04:14PM 31.9081 -99.4936 330° Northwest 410 472 34,900 900 Climbing Fort Worth Center
04:15PM 32.0050 -99.5544 332° Northwest 410 472 35,800 540 Climbing Fort Worth Center
04:16PM 32.1019 -99.6181 331° Northwest 399 459 36,000 60 Climbing Fort Worth Center
04:17PM 32.1992 -99.6794 332° Northwest 399 459 36,000  Level Fort Worth Center
04:18PM 32.2961 -99.7433 331° Northwest 399 459 36,000  Level Fort Worth Center
04:19PM 32.3950 -99.8072 331° Northwest 399 459 36,000  Level Fort Worth Center
04:20PM 32.4856 -99.8786 326° Northwest 399 459 36,000  Level Fort Worth Center
04:21PM 32.5544 -99.9792 309° West 394 453 36,000  Level Fort Worth Center
04:22PM 32.6358 -100.0875 312° West 389 448 36,000  Level Fort Worth Center
04:23PM 32.7067 -100.1883 310° West 394 453 36,000  Level Fort Worth Center
04:24PM 32.7775 -100.2869 311° West 394 453 36,000  Level Fort Worth Center
04:25PM 32.8481 -100.3881 310° West 394 453 36,000  Level Fort Worth Center
04:26PM 32.9147 -100.4844 310° West 389 448 36,000  Level Fort Worth Center
04:27PM 32.9853 -100.5858 310° West 389 448 36,000  Level Fort Worth Center
04:28PM 33.0558 -100.6850 310° West 384 442 36,000  Level Fort Worth Center
04:29PM 33.1219 -100.7842 309° West 384 442 36,000  Level Fort Worth Center
04:30PM 33.1903 -100.8836 309° West 384 442 36,000  Level Fort Worth Center
04:31PM 33.2564 -100.9831 309° West 384 442 36,000  Level Fort Worth Center
04:32PM 33.3267 -101.0778 312° West 384 442 36,000  Level Fort Worth Center
04:33PM 33.3925 -101.1778 308° West 390 449 36,000  Level Fort Worth Center
04:34PM 33.4606 -101.2778 309° West 390 449 36,000  Level Fort Worth Center
04:35PM 33.5283 -101.3753 310° West 384 442 36,000  Level Fort Worth Center
04:36PM 33.5961 -101.4756 309° West 389 448 36,000  Level Fort Worth Center
04:37PM 33.6636 -101.5761 309° West 383 441 36,000  Level Fort Worth Center
04:38PM 33.7331 -101.6842 308° West 393 452 36,000  Level Fort Worth Center
04:39PM 33.8047 -101.7828 311° West 395 455 36,000  Level Fort Worth Center
04:40PM 33.8681 -101.8808 308° West 406 467 36,000  Level Fort Worth Center
04:41PM 33.9411 -101.9950 308° West 406 467 36,000  Level Fort Worth Center
04:42PM 34.0003 -102.0906 307° West 399 459 36,000  Level Fort Worth Center
04:44PM 34.1428 -102.2992 310° West 397 457 36,000  Level Albuquerque Center
04:45PM 34.2108 -102.4033 308° West 395 455 36,000  Level Albuquerque Center
04:46PM 34.2883 -102.5211 309° West 392 451 36,000  Level Albuquerque Center
04:47PM 34.3575 -102.6269 308° West 396 456 36,000  Level Albuquerque Center
04:48PM 34.4272 -102.7344 308° West 400 460 36,000  Level Albuquerque Center
04:49PM 34.5058 -102.8553 308° West 408 470 36,100 300 Climbing Albuquerque Center
04:51PM 34.5917 -103.0233 302° West  Level FlightAware Approximate
04:51PM 34.6250 -103.0850 302° West 400 460 37,000  Level Albuquerque Center
04:52PM 34.6825 -103.1997 301° West 396 456 37,000  Level Albuquerque Center
04:53PM 34.7422 -103.3133 303° West 395 455 37,000  Level Albuquerque Center
04:54PM 34.8006 -103.4269 302° West 393 452 37,000  Level Albuquerque Center
04:55PM 34.8594 -103.5408 302° West 393 452 37,000  Level Albuquerque Center
04:56PM 34.9267 -103.6725 302° West 391 450 37,000  Level Albuquerque Center
04:57PM 34.9836 -103.7844 302° West 387 445 37,000  Level Albuquerque Center
04:58PM 35.0406 -103.8972 302° West 386 444 37,000  Level Albuquerque Center
04:59PM 35.1003 -104.0131 302° West 387 445 37,000  Level Albuquerque Center
05:00PM 35.1556 -104.1239 301° West 383 441 37,000  Level Albuquerque Center
05:01PM 35.2119 -104.2336 302° West 382 440 37,000 -60 Level Albuquerque Center
05:02PM 35.2667 -104.3447 301° West 382 440 36,900 -420 Descending Albuquerque Center
05:04PM 35.3225 -104.4561 302° West 383 441 36,200 -480 Descending Albuquerque Center
05:05PM 35.3839 -104.5831 301° West 394 453 36,000 -120 Descending Albuquerque Center
05:06PM 35.4436 -104.7011 302° West 402 463 36,000  Level Albuquerque Center
05:07PM 35.5119 -104.8392 301° West 402 463 36,000  Level Albuquerque Center
05:08PM 35.5703 -104.9589 301° West 404 465 36,000  Level Albuquerque Center
05:09PM 35.6269 -105.0761 301° West 400 460 36,000  Level Albuquerque Center
05:10PM 35.6817 -105.1925 300° West 394 453 36,000  Level Albuquerque Center
05:11PM 35.7267 -105.3136 295° West 387 445 36,000  Level Albuquerque Center
05:12PM 35.7722 -105.4344 295° West 386 444 36,000  Level Albuquerque Center
05:13PM 35.8231 -105.5672 295° West 387 445 36,000  Level Albuquerque Center
05:14PM 35.8694 -105.6872 296° West 389 448 36,000  Level Albuquerque Center
05:15PM 35.9147 -105.8078 295° West 388 447 36,000  Level Albuquerque Center
05:16PM 35.9650 -105.9397 295° West 387 445 36,000  Level Albuquerque Center
05:17PM 36.0050 -106.0478 295° West 387 445 36,000  Level Albuquerque Center
05:18PM 36.0603 -106.1925 295° West 389 448 36,000  Level Albuquerque Center
05:19PM 36.1064 -106.3172 295° West 396 456 36,000  Level Albuquerque Center
05:20PM 36.1511 -106.4400 294° West 394 453 36,000  Level Albuquerque Center
05:21PM 36.2011 -106.5708 295° West 396 456 36,000  Level Albuquerque Center
05:22PM 36.2439 -106.6881 294° West 393 452 36,000  Level Albuquerque Center
05:23PM 36.2936 -106.8258 294° West 393 452 36,000  Level Albuquerque Center
05:24PM 36.3364 -106.9428 294° West 391 450 36,000  Level Albuquerque Center
05:25PM 36.3861 -107.0800 294° West 391 450 36,000  Level Albuquerque Center
05:26PM 36.4353 -107.2153 294° West 389 448 36,000  Level Denver Center
05:27PM 36.4772 -107.3294 295° West 383 441 36,000  Level Denver Center
05:28PM 36.5231 -107.4611 293° West 376 433 36,000  Level Denver Center
05:29PM 36.5631 -107.5725 294° West 371 427 36,000  Level Denver Center
05:30PM 36.6089 -107.7006 294° West 366 421 36,000  Level Denver Center
05:31PM 36.6472 -107.8083 294° West 358 412 36,000  Level Denver Center
05:32PM 36.6853 -107.9161 294° West 357 411 36,000  Level Denver Center
05:34PM 36.7306 -108.0447 294° West 363 418 36,000  Level Denver Center
05:35PM 36.7689 -108.1569 293° West 367 422 36,000  Level Denver Center
05:36PM 36.8164 -108.2894 294° West 375 432 36,000  Level Denver Center
05:37PM 36.8561 -108.4028 294° West 375 432 36,000  Level Denver Center
05:38PM 36.9036 -108.5375 294° West 379 436 36,000  Level Denver Center
05:39PM 36.9444 -108.6544 294° West 382 440 36,000  Level Denver Center
05:40PM 36.9928 -108.7944 293° West 391 450 36,000  Level Denver Center
05:41PM 37.0344 -108.9147 293° West 394 453 36,000  Level Denver Center
05:42PM 37.0847 -109.0572 294° West 401 461 36,000  Level Denver Center
05:43PM 37.1267 -109.1797 293° West 402 463 36,000  Level Denver Center
05:44PM 37.1764 -109.3258 293° West 407 468 36,000  Level Denver Center
05:45PM 37.2189 -109.4508 293° West 410 472 36,000  Level Denver Center
05:46PM 37.2692 -109.5969 293° West 410 472 36,000  Level Denver Center
05:48PM 37.3383 -109.8028 293° West 413 475 36,000  Level Salt Lake Center
05:48PM 37.3617 -109.8733 293° West 416 479 36,000  Level Denver Center
05:49PM 37.4050 -110.0011 293° West 416 479 36,000  Level Denver Center
05:50PM 37.4544 -110.1514 293° West 416 479 36,000  Level Denver Center
05:51PM 37.4981 -110.2808 293° West 420 483 36,000  Level Denver Center
05:52PM 37.5469 -110.4319 292° West 418 481 36,100  Climbing Denver Center
05:53PM 37.5900 -110.5581 293° West 423 487 36,000 -60 Descending Denver Center
05:54PM 37.6342 -110.6942 292° West 421 484 36,000  Level Denver Center
05:55PM 37.6781 -110.8297 292° West 420 483 36,000  Level Denver Center
05:56PM 37.7303 -110.9922 292° West 417 480 36,000  Level Denver Center
05:57PM 37.7739 -111.1272 292° West 415 478 36,000  Level Denver Center
05:58PM 37.7903 -111.1811 291° West 417 480 36,000  Level Salt Lake Center
05:59PM 37.8417 -111.3433 292° West 416 479 36,000  Level Salt Lake Center
06:00PM 37.8872 -111.4778 293° West 416 479 36,000  Level Salt Lake Center
06:01PM 37.9294 -111.6144 291° West 417 480 36,000  Level Salt Lake Center
06:02PM 37.9703 -111.7461 292° West 407 468 36,000  Level Salt Lake Center
06:03PM 38.0125 -111.8814 292° West 411 473 36,000  Level Salt Lake Center
06:04PM 38.0650 -112.0436 292° West 415 478 36,000  Level Salt Lake Center
06:05PM 38.1058 -112.1747 292° West 406 467 36,000  Level Salt Lake Center
06:06PM 38.1464 -112.3050 292° West 401 461 36,000  Level Salt Lake Center
06:07PM 38.1864 -112.4356 291° West 398 458 36,000  Level Salt Lake Center
06:08PM 38.2253 -112.5650 291° West 396 456 36,000  Level Salt Lake Center
06:09PM 38.2647 -112.6944 291° West 395 455 36,000  Level Salt Lake Center
06:10PM 38.3122 -112.8531 291° West 401 461 36,000  Level Salt Lake Center
06:11PM 38.3517 -112.9892 290° West 410 472 36,000  Level Salt Lake Center
06:12PM 38.3547 -113.1361 272° West 419 482 36,000  Level Salt Lake Center
06:13PM 38.3414 -113.2861 264° West 425 489 36,000  Level Salt Lake Center
06:14PM 38.3297 -113.4350 264° West 426 490 36,000  Level Salt Lake Center
06:15PM 38.3183 -113.5833 264° West 425 489 36,000  Level Salt Lake Center
06:16PM 38.3039 -113.7592 264° West 420 483 36,000  Level Salt Lake Center
06:17PM 38.2919 -113.9067 264° West 421 484 36,000  Level Salt Lake Center
06:18PM 38.2797 -114.0536 264° West 420 483 36,000  Level Salt Lake Center
06:19PM 38.2675 -114.2017 264° West 422 486 36,000  Level Salt Lake Center
06:21PM 38.2536 -114.3478 263° West 420 483 36,000  Level Salt Lake Center
06:22PM 38.2431 -114.4947 265° West 420 483 36,000  Level Salt Lake Center
06:23PM 38.2336 -114.6719 266° West 419 482 36,000  Level Salt Lake Center
06:24PM 38.2244 -114.8203 266° West 421 484 36,000  Level Salt Lake Center
06:25PM 38.2150 -114.9675 265° West 420 483 36,000  Level Salt Lake Center
06:26PM 38.2053 -115.1161 265° West 423 487 36,000  Level Salt Lake Center
06:27PM 38.1958 -115.2656 265° West 424 488 36,100  Climbing Salt Lake Center
06:28PM 38.1850 -115.4172 265° West 427 491 36,000 -60 Descending Salt Lake Center
06:29PM 38.1750 -115.5675 265° West 427 491 36,000  Level Salt Lake Center
06:30PM 38.1622 -115.7478 265° West 428 493 36,000  Level Salt Lake Center
06:31PM 38.1514 -115.8975 265° West 425 489 36,000  Level Salt Lake Center
06:32PM 38.1400 -116.0475 265° West 428 493 36,000  Level Salt Lake Center
06:33PM 38.1294 -116.1983 265° West 428 493 36,000  Level Salt Lake Center
06:34PM 38.1181 -116.3478 265° West 427 491 36,000  Level Salt Lake Center
06:35PM 38.1061 -116.4989 264° West 428 493 36,000  Level Oakland Center
06:36PM 38.0953 -116.6483 265° West 426 490 36,000  Level Oakland Center
06:37PM 38.0836 -116.7994 264° West 429 494 36,000  Level Oakland Center
06:38PM 38.0719 -116.9517 264° West 432 497 36,000  Level Oakland Center
06:39PM 38.0589 -117.1050 264° West 431 496 36,000  Level Oakland Center
06:41PM 38.0333 -117.4186 264° West 434 499 36,000  Level Oakland Center
06:42PM 38.0203 -117.5719 264° West 434 499 36,000  Level Oakland Center
06:43PM 38.0069 -117.7239 264° West 434 499 36,000  Level Oakland Center
06:44PM 37.9922 -117.8767 263° West 435 501 36,000  Level Oakland Center
06:45PM 37.9753 -118.0281 262° West 435 501 36,000  Level Oakland Center
06:46PM 37.9589 -118.1792 262° West 434 499 36,000  Level Oakland Center
06:47PM 37.9422 -118.3314 262° West 436 502 36,000  Level Oakland Center
06:48PM 37.9247 -118.4828 262° West 435 501 36,000  Level Oakland Center
06:49PM 37.9058 -118.6639 263° West 432 497 36,000  Level Oakland Center
06:50PM 37.8894 -118.8153 262° West 433 498 36,000  Level Oakland Center
06:51PM 37.8714 -118.9644 261° West 430 495 36,000 -480 Level Oakland Center
06:52PM 37.8547 -119.1211 262° West 431 496 35,100 -960 Descending Oakland Center
06:53PM 37.8350 -119.2792 261° West 451 519 34,100 -1,020 Descending Oakland Center
06:54PM 37.8161 -119.4406 262° West 462 532 33,100 -1,020 Descending Oakland Center
06:55PM 37.7983 -119.6047 262° West 470 541 32,100 -540 Descending Oakland Center
06:56PM 37.7778 -119.7706 261° West 477 549 32,000 -60 Descending Oakland Center
06:57PM 37.7578 -119.9303 261° West 463 533 32,000  Level Oakland Center
06:58PM 37.7392 -120.0889 262° West 457 526 32,000  Level Oakland Center
06:59PM 37.7186 -120.2503 261° West 463 533 32,000 -540 Level Oakland Center
07:00PM 37.7003 -120.4092 262° West 458 527 31,000 -1,740 Descending Oakland Center
07:01PM 37.6786 -120.5697 260° West 461 531 28,500 -2,880 Descending Oakland Center
07:02PM 37.6667 -120.6667 261° West 474 545 26,900 -2,940 Descending Northern Cal TRACON
07:03PM 37.6500 -120.8167 262° West 454 522 24,600 -2,640 Descending Northern Cal TRACON
07:04PM 37.6167 -120.9833 256° West 433 498 21,600 -2,640 Descending Northern Cal TRACON
07:05PM 37.6167 -121.1167 270° West 415 478 19,100 -2,460 Descending Northern Cal TRACON
07:06PM 37.6000 -121.2500 261° West 402 463 16,700 -2,520 Descending Northern Cal TRACON
07:07PM 37.5667 -121.3833 253° West 385 443 14,100 -2,340 Descending Northern Cal TRACON
07:08PM 37.5500 -121.5000 260° West 366 421 12,300 -1,140 Descending Northern Cal TRACON
07:09PM 37.5333 -121.6167 260° West 336 387 11,900 -840 Descending Northern Cal TRACON
07:10PM 37.5167 -121.7167 258° West 297 342 10,700 -1,500 Descending Northern Cal TRACON
07:11PM 37.5000 -121.8167 258° West 278 320 8,900 -1,320 Descending Northern Cal TRACON
07:12PM 37.4833 -121.9000 256° West 264 304 8,100 -1,020 Descending Northern Cal TRACON
07:13PM 37.5000 -122.0000 282° West 264 304 7,000 -1,380 Descending Northern Cal TRACON
07:14PM 37.5167 -122.0833 284° West 261 300 5,400 -1,680 Descending Northern Cal TRACON
07:15PM 37.5439 -122.1422 300° West 258 297 3,800 -1,500 Descending Oakland Center
07:16PM 37.5656 -122.2161 290° West 241 277 2,500 -1,140 Descending Oakland Center
07:17PM 37.5836 -122.2883 288° West 203 234 1,500 -960 Descending Oakland Center
07:18PM 37.6000 -122.3303 296° West 163 188 600 14,820 Descending Oakland Center
07:19PM 37.6161 -122.3661 300° West 138 159 32,000 30,840 Climbing Oakland Center